Aeroporto :
LOGIN :

Iscrizione | Disclaimer

   EN    FR    IT 

 










Sommario :    VFR   VFR Marginale   IFR   IFR Intensivo   IFR Molto Intensivo
Visibilità : 
Base nubi : 
>= 8 km
>= 3000ft
5 / 8 km
1000 / 3000 ft
1500m / 5 km
500 / 1000 ft
800 / 1500m
200 / 500 ft
< 800m
< 200 ft
Simboli :   Temporali  Nebbia  Neve Forte  Precipitazioni Forti  Vento > 20 kt
SIGMETs :   Varie  Temporali  Ghiacco  Turbolenza  Onda orograficha  Ceneri Vulcaniche






- Altitudine del aeroporto : 778 ft
- Codice IATA : BRQ


LKTB - Brno-Turany

ULTIMO METAR :
  • 232030Z 12013KT 9999 OVC045 09/06 Q0998 NOSIG

METARs OBSOLETI :
  • 232000Z 11011KT 9999 FEW018 OVC043 08/06 Q0998 NOSIG
  • 231930Z 10012KT 9999 FEW015 OVC043 08/06 Q0998 NOSIG
  • 231900Z 10012KT 9999 -RA FEW013 OVC043 07/06 Q0998 NOSIG
  • 231830Z 09011KT 9999 -RA SCT012 BKN039 OVC045 07/06 Q0999 NOSIG
  • 231800Z 08010KT 9999 -RA BKN013 OVC042 07/06 Q0999 NOSIG
  • 231730Z 10008KT 9999 -RA SCT014 BKN022 OVC031 06/05 Q1000 NOSIG
  • 231700Z 07007KT 9999 -RA BKN014 BKN017 OVC026 06/05 Q1000 NOSIG
  • 231630Z 07006KT 9999 -RA BKN018 OVC027 06/05 Q1000 NOSIG
  • 231600Z 08008KT 9999 -RA OVC028 06/05 Q1000 NOSIG

TAF TAF LKTB
Valido dal 23 a 18 ore il 24 a 18 ore UTC


231700Z 2318/2418 14008KT 9999 -RA BKN025
TEMPO 2318/2407 20008KT 5000 RA BR BKN012
PROB30
TEMPO 2318/2406 18014KT 2000 RA BR BKN004
BECMG 2407/2409 20006KT 9999 BKN035
TEMPO 2414/2418 SCT035



MetMap, La meteo Aeronautica in un colpo d'occhio ! - Copyright ORBIFLY Dicembre 2007 - Disclaimer

ORBIFLY MET'MAP TEAM :

Programmazione e sviluppo : Alexandra Zaïnal
Concezione : Baudouin d'Aumeries
Supporto tecnico e logistico : Manuel Goepfert
Aiuto : Marc-Olivier Méhu
Aiuto per la traduzione : Arnaldo La Scala




FONTI E CREDITI :

   NOAA